Hurlock, Maryland
Current Conditions -  °F | °C
As of 5:16 AM on Saturday 01 Nov 2014 (Local Time) from KCGE Reporting Station
Overcast Overcast  
Wind Chill: 52°   Ceiling: 1700
Heat Index: 52°   Visibility: 10mi
Dew Point: 43°   Wind: 13mph
Humidity: 71%   Direction: 350°N
Pressure: 29.7"   Gusts: 17mph
Location:  38.62°N, 75.85°W
Report Text: KCGE 010916Z AUTO 35011G15KT 10SM OVC017 11/06 A2970 RMK AO1
Loading
Personal Weather Stations






























Interactive Weather Map
Tropical Storm Tracking
New forecast layout! Learn more

10-Day Weather Forecast

Advertisements
Track Severe Weather on mobile